createdAt,value
2018-11-06T00:00:33.303Z,7.30
2018-11-06T00:01:39.205Z,7.25
2018-11-06T00:02:45.071Z,7.25
2018-11-06T00:03:50.362Z,7.20
2018-11-06T00:04:56.061Z,7.14
2018-11-06T00:06:01.947Z,7.29
2018-11-06T00:07:07.819Z,7.29
2018-11-06T00:08:13.753Z,7.16
2018-11-06T00:09:19.678Z,7.17
2018-11-06T00:10:25.741Z,7.22
2018-11-06T00:11:31.640Z,7.15
2018-11-06T00:12:37.548Z,7.22
2018-11-06T00:13:43.791Z,7.14
2018-11-06T00:14:49.685Z,7.15
2018-11-06T00:15:55.882Z,7.20
2018-11-06T00:17:01.763Z,7.16
2018-11-06T00:18:07.917Z,7.16
2018-11-06T00:19:14.099Z,7.31
2018-11-06T00:20:20.024Z,7.29
2018-11-06T00:21:25.889Z,7.30
2018-11-06T00:22:31.759Z,7.36
2018-11-06T00:23:37.950Z,7.39
2018-11-06T00:24:43.878Z,7.44
2018-11-06T00:25:50.037Z,7.53
2018-11-06T00:26:55.945Z,7.54
2018-11-06T00:28:02.096Z,7.52
2018-11-06T00:29:08.259Z,7.53
2018-11-06T00:30:14.131Z,7.41
2018-11-06T00:31:20.146Z,7.31
2018-11-06T00:32:26.019Z,7.38
2018-11-06T00:33:32.138Z,7.31
2018-11-06T00:34:38.017Z,7.26
2018-11-06T00:35:43.933Z,7.25
2018-11-06T00:36:50.625Z,7.36
2018-11-06T00:37:56.500Z,7.30
2018-11-06T00:39:02.413Z,7.23
2018-11-06T00:40:08.342Z,7.28
2018-11-06T00:41:14.228Z,7.36
2018-11-06T00:42:20.150Z,7.38
2018-11-06T00:43:26.048Z,7.41
2018-11-06T00:44:31.952Z,7.40
2018-11-06T00:45:37.828Z,7.51
2018-11-06T00:46:43.727Z,7.44
2018-11-06T00:47:49.885Z,7.53
2018-11-06T00:48:56.034Z,7.57
2018-11-06T00:50:01.932Z,7.52
2018-11-06T00:51:08.131Z,7.43
2018-11-06T00:52:13.999Z,7.43
2018-11-06T00:53:20.157Z,7.43
2018-11-06T00:54:26.065Z,7.40
2018-11-06T00:55:31.968Z,7.42
2018-11-06T00:56:37.826Z,7.34
2018-11-06T00:57:43.332Z,7.47
2018-11-06T00:58:48.997Z,7.42
2018-11-06T00:59:54.853Z,7.47
2018-11-06T01:01:00.405Z,7.45
2018-11-06T01:02:05.974Z,7.57
2018-11-06T01:03:11.914Z,7.50
2018-11-06T01:04:17.813Z,7.51
2018-11-06T01:05:23.718Z,7.52
2018-11-06T01:06:29.632Z,7.50
2018-11-06T01:07:35.524Z,7.45
2018-11-06T01:08:41.646Z,7.41
2018-11-06T01:09:47.525Z,7.41
2018-11-06T01:10:53.418Z,7.45
2018-11-06T01:11:59.302Z,7.46
2018-11-06T01:13:08.098Z,7.41
2018-11-06T01:14:18.636Z,7.38
2018-11-06T01:15:24.552Z,7.30
2018-11-06T01:16:30.070Z,7.27
2018-11-06T01:17:35.564Z,7.27
2018-11-06T01:18:41.770Z,7.32
2018-11-06T01:19:47.650Z,7.41
2018-11-06T01:20:53.518Z,7.41
2018-11-06T01:21:59.427Z,7.42
2018-11-06T01:23:05.001Z,7.42
2018-11-06T01:24:11.169Z,7.44
2018-11-06T01:25:16.740Z,7.42
2018-11-06T01:26:22.815Z,7.43
2018-11-06T01:27:28.710Z,7.33
2018-11-06T01:28:34.549Z,7.35
2018-11-06T01:29:40.433Z,7.29
2018-11-06T01:30:46.684Z,7.57
2018-11-06T01:31:52.560Z,7.87
2018-11-06T01:32:58.427Z,8.02
2018-11-06T01:34:04.221Z,8.05
2018-11-06T01:35:09.841Z,8.26
2018-11-06T01:36:15.745Z,8.52
2018-11-06T01:37:21.624Z,8.54
2018-11-06T01:38:27.770Z,8.46
2018-11-06T01:39:33.607Z,8.50
2018-11-06T01:40:39.492Z,8.46
2018-11-06T01:41:45.411Z,8.30
2018-11-06T01:42:51.572Z,8.18
2018-11-06T01:43:57.676Z,8.07
2018-11-06T01:45:03.202Z,7.99
2018-11-06T01:46:09.386Z,8.07
2018-11-06T01:47:15.227Z,7.97
2018-11-06T01:48:21.097Z,7.89
2018-11-06T01:49:26.996Z,7.85
2018-11-06T01:50:32.894Z,7.93
2018-11-06T01:51:38.782Z,7.89
2018-11-06T01:52:44.619Z,7.74
2018-11-06T01:53:50.801Z,7.67
2018-11-06T01:54:56.676Z,7.64
2018-11-06T01:56:02.846Z,7.81
2018-11-06T01:57:08.742Z,7.70
2018-11-06T01:58:14.879Z,7.76
2018-11-06T01:59:20.747Z,7.67
2018-11-06T02:00:26.635Z,7.53
2018-11-06T02:01:31.516Z,7.48
2018-11-06T02:02:37.073Z,7.45
2018-11-06T02:03:43.090Z,7.42
2018-11-06T02:04:48.999Z,7.36
2018-11-06T02:05:54.893Z,7.43
2018-11-06T02:07:00.749Z,7.45
2018-11-06T02:08:06.535Z,7.44
2018-11-06T02:09:12.704Z,7.30
2018-11-06T02:10:18.600Z,7.25
2018-11-06T02:11:24.487Z,7.26
2018-11-06T02:12:30.372Z,7.28
2018-11-06T02:13:36.560Z,7.35
2018-11-06T02:14:42.440Z,7.24
2018-11-06T02:15:48.604Z,7.33
2018-11-06T02:16:54.757Z,7.20
2018-11-06T02:18:00.992Z,7.21
2018-11-06T02:19:07.100Z,7.22
2018-11-06T02:20:12.294Z,7.20
2018-11-06T02:21:18.292Z,7.19
2018-11-06T02:22:24.148Z,7.15
2018-11-06T02:23:30.287Z,7.07
2018-11-06T02:24:36.138Z,7.05
2018-11-06T02:25:42.015Z,7.06
2018-11-06T02:26:47.867Z,7.02
2018-11-06T02:27:53.992Z,6.98
2018-11-06T02:29:00.162Z,7.00
2018-11-06T02:30:05.345Z,6.94
2018-11-06T02:31:11.545Z,6.79
2018-11-06T02:32:17.160Z,6.79
2018-11-06T02:33:23.220Z,6.72
2018-11-06T02:34:29.084Z,6.78
2018-11-06T02:35:34.926Z,6.75
2018-11-06T02:36:40.827Z,6.80
2018-11-06T02:37:47.541Z,6.86
2018-11-06T02:38:55.604Z,6.91
2018-11-06T02:40:01.523Z,6.93
2018-11-06T02:41:07.912Z,7.01
2018-11-06T02:42:13.451Z,6.99
2018-11-06T02:43:19.678Z,6.94
2018-11-06T02:44:25.556Z,7.02
2018-11-06T02:45:31.454Z,6.92
2018-11-06T02:46:37.358Z,6.96
2018-11-06T02:47:43.272Z,7.03
2018-11-06T02:48:49.125Z,7.02
2018-11-06T02:49:54.991Z,7.03
2018-11-06T02:51:01.163Z,7.05
2018-11-06T02:52:06.771Z,7.05
2018-11-06T02:53:12.912Z,7.03
2018-11-06T02:54:18.751Z,7.06
2018-11-06T02:55:24.613Z,7.03
2018-11-06T02:56:30.540Z,7.09
2018-11-06T02:57:36.424Z,7.05
2018-11-06T02:58:42.906Z,7.04
2018-11-06T02:59:49.847Z,7.03
2018-11-06T03:00:55.694Z,7.04
2018-11-06T03:02:01.599Z,7.00
2018-11-06T03:03:07.497Z,7.02
2018-11-06T03:04:13.527Z,7.02
2018-11-06T03:05:19.741Z,6.98
2018-11-06T03:06:25.622Z,6.98
2018-11-06T03:07:31.153Z,7.00
2018-11-06T03:08:37.102Z,7.00
2018-11-06T03:09:42.974Z,6.98
2018-11-06T03:10:49.092Z,6.94
2018-11-06T03:11:55.281Z,7.02
2018-11-06T03:13:01.443Z,7.00
2018-11-06T03:14:07.231Z,6.92
2018-11-06T03:15:13.136Z,7.03
2018-11-06T03:16:19.123Z,6.97
2018-11-06T03:17:25.026Z,6.89
2018-11-06T03:18:30.832Z,6.85
2018-11-06T03:19:36.738Z,6.86
2018-11-06T03:20:44.031Z,6.83
2018-11-06T03:21:49.993Z,6.87
2018-11-06T03:22:56.130Z,6.84
2018-11-06T03:24:01.751Z,6.82
2018-11-06T03:25:06.933Z,6.75
2018-11-06T03:26:12.769Z,6.80
2018-11-06T03:27:18.659Z,6.90
2018-11-06T03:28:24.989Z,6.91
2018-11-06T03:29:30.845Z,6.96
2018-11-06T03:30:36.698Z,6.98
2018-11-06T03:31:42.719Z,6.98
2018-11-06T03:32:48.846Z,7.01
2018-11-06T03:33:54.977Z,6.92
2018-11-06T03:35:00.857Z,7.02
2018-11-06T03:36:07.055Z,7.03
2018-11-06T03:37:12.919Z,6.94
2018-11-06T03:38:19.072Z,6.91
2018-11-06T03:39:24.936Z,6.94
2018-11-06T03:40:30.470Z,6.91
2018-11-06T03:41:36.011Z,6.90
2018-11-06T03:42:41.934Z,6.81
2018-11-06T03:43:48.139Z,6.81
2018-11-06T03:44:54.000Z,6.88
2018-11-06T03:46:00.136Z,6.91
2018-11-06T03:47:05.664Z,7.01
2018-11-06T03:48:11.809Z,6.97
2018-11-06T03:49:17.930Z,6.98
2018-11-06T03:50:23.816Z,7.06
2018-11-06T03:51:30.004Z,7.12
2018-11-06T03:52:36.417Z,7.07
2018-11-06T03:53:42.549Z,7.11
2018-11-06T03:54:48.439Z,7.05
2018-11-06T03:55:54.314Z,7.14
2018-11-06T03:57:00.229Z,6.95
2018-11-06T03:58:06.109Z,6.96
2018-11-06T03:59:12.016Z,6.94
2018-11-06T04:00:17.889Z,6.91
2018-11-06T04:01:24.143Z,6.91
2018-11-06T04:02:30.343Z,6.86
2018-11-06T04:03:35.973Z,6.77
2018-11-06T04:04:42.023Z,6.69
2018-11-06T04:05:48.141Z,6.67
2018-11-06T04:06:54.018Z,6.58
2018-11-06T04:08:00.192Z,6.63
2018-11-06T04:09:05.638Z,6.62
2018-11-06T04:10:11.573Z,6.55
2018-11-06T04:11:18.081Z,6.52
2018-11-06T04:12:23.955Z,6.55
2018-11-06T04:13:30.134Z,6.50
2018-11-06T04:14:36.035Z,6.43
2018-11-06T04:15:42.045Z,6.42
2018-11-06T04:16:48.374Z,6.42
2018-11-06T04:17:54.594Z,6.41
2018-11-06T04:19:00.485Z,6.40
2018-11-06T04:20:05.959Z,6.39
2018-11-06T04:21:11.846Z,6.34
2018-11-06T04:22:17.864Z,6.36
2018-11-06T04:23:24.044Z,6.33
2018-11-06T04:24:29.900Z,6.33
2018-11-06T04:25:36.287Z,6.33
2018-11-06T04:26:42.177Z,6.35
2018-11-06T04:27:48.351Z,6.34
2018-11-06T04:28:54.563Z,6.38
2018-11-06T04:30:00.526Z,6.42
2018-11-06T04:31:06.694Z,6.44
2018-11-06T04:32:12.596Z,6.51
2018-11-06T04:33:18.718Z,6.69
2018-11-06T04:34:24.629Z,6.72
2018-11-06T04:35:30.590Z,6.85
2018-11-06T04:36:36.472Z,6.94
2018-11-06T04:37:42.622Z,6.88
2018-11-06T04:38:48.789Z,6.99
2018-11-06T04:39:54.629Z,7.01
2018-11-06T04:41:00.880Z,7.13
2018-11-06T04:42:06.546Z,7.05
2018-11-06T04:43:13.397Z,7.10
2018-11-06T04:44:21.417Z,7.18
2018-11-06T04:45:27.340Z,7.16
2018-11-06T04:46:33.384Z,7.14
2018-11-06T04:47:39.298Z,7.06
2018-11-06T04:48:45.440Z,7.14
2018-11-06T04:49:51.333Z,7.17
2018-11-06T04:50:57.490Z,7.07
2018-11-06T04:52:03.498Z,7.18
2018-11-06T04:53:09.648Z,7.36
2018-11-06T04:54:15.849Z,7.37
2018-11-06T04:55:21.775Z,7.34
2018-11-06T04:56:27.644Z,7.23
2018-11-06T04:57:33.541Z,7.20
2018-11-06T04:58:39.939Z,7.19
2018-11-06T04:59:45.810Z,7.09
2018-11-06T05:00:51.705Z,7.09
2018-11-06T05:01:57.941Z,7.30
2018-11-06T05:03:03.969Z,7.23
2018-11-06T05:04:09.830Z,7.22
2018-11-06T05:05:15.749Z,7.28
2018-11-06T05:06:21.618Z,7.20
2018-11-06T05:07:27.477Z,7.04
2018-11-06T05:08:33.335Z,7.01
2018-11-06T05:09:39.218Z,7.05
2018-11-06T05:10:45.171Z,6.93
2018-11-06T05:11:51.227Z,6.88
2018-11-06T05:12:57.430Z,6.84
2018-11-06T05:14:03.010Z,6.85
2018-11-06T05:15:08.443Z,6.85
2018-11-06T05:16:14.305Z,6.79
2018-11-06T05:17:20.238Z,6.75
2018-11-06T05:18:26.160Z,6.69
2018-11-06T05:19:32.047Z,6.75
2018-11-06T05:20:37.927Z,6.77
2018-11-06T05:21:43.861Z,6.81
2018-11-06T05:22:49.761Z,6.85
2018-11-06T05:23:55.605Z,6.83
2018-11-06T05:25:01.487Z,6.94
2018-11-06T05:26:09.131Z,6.94
2018-11-06T05:27:26.141Z,6.98
2018-11-06T05:28:36.950Z,6.95
2018-11-06T05:29:42.900Z,7.09
2018-11-06T05:30:48.806Z,7.10
2018-11-06T05:31:54.719Z,7.03
2018-11-06T05:33:00.737Z,7.01
2018-11-06T05:34:07.136Z,6.99
2018-11-06T05:35:12.429Z,6.96
2018-11-06T05:36:18.302Z,6.98
2018-11-06T05:37:24.240Z,6.95
2018-11-06T05:38:30.180Z,6.90
2018-11-06T05:39:35.390Z,6.84
2018-11-06T05:40:45.181Z,6.87
2018-11-06T05:41:51.073Z,7.15
2018-11-06T05:42:56.937Z,7.23
2018-11-06T05:44:02.942Z,7.34
2018-11-06T05:45:09.256Z,7.26
2018-11-06T05:46:15.122Z,7.23
2018-11-06T05:47:21.553Z,7.22
2018-11-06T05:48:27.470Z,7.14
2018-11-06T05:49:33.327Z,7.02
2018-11-06T05:50:39.161Z,6.91
2018-11-06T05:51:45.083Z,6.92
2018-11-06T05:52:51.269Z,6.82
2018-11-06T05:53:57.154Z,6.76
2018-11-06T05:55:03.044Z,6.64
2018-11-06T05:56:08.946Z,6.75
2018-11-06T05:57:14.838Z,6.76
2018-11-06T05:58:20.709Z,6.62
2018-11-06T05:59:26.557Z,6.55
2018-11-06T06:00:32.499Z,6.52
2018-11-06T06:01:38.552Z,6.42
2018-11-06T06:02:44.368Z,6.39
2018-11-06T06:03:51.256Z,6.35
2018-11-06T06:04:58.447Z,6.28
2018-11-06T06:06:05.724Z,6.42
2018-11-06T06:07:13.109Z,6.46
2018-11-06T06:08:20.533Z,6.49
2018-11-06T06:09:26.858Z,6.46
2018-11-06T06:10:32.726Z,6.45
2018-11-06T06:11:41.440Z,6.52
2018-11-06T06:12:47.737Z,6.49
2018-11-06T06:13:55.185Z,6.49
2018-11-06T06:15:05.156Z,6.47
2018-11-06T06:16:12.653Z,6.51
2018-11-06T06:17:19.028Z,6.55
2018-11-06T06:18:25.377Z,6.57
2018-11-06T06:19:31.399Z,6.61
2018-11-06T06:20:37.415Z,6.51
2018-11-06T06:21:43.311Z,6.38
2018-11-06T06:22:51.902Z,6.41
2018-11-06T06:24:10.354Z,6.47
2018-11-06T06:25:23.324Z,6.36
2018-11-06T06:26:29.203Z,6.46
2018-11-06T06:27:35.192Z,6.45
2018-11-06T06:28:41.401Z,6.68
2018-11-06T06:29:47.313Z,6.74
2018-11-06T06:30:53.210Z,6.76
2018-11-06T06:31:59.112Z,6.67
2018-11-06T06:33:04.975Z,6.60
2018-11-06T06:34:10.853Z,6.53
2018-11-06T06:35:16.763Z,6.58
2018-11-06T06:36:22.815Z,6.64
2018-11-06T06:37:28.657Z,6.52
2018-11-06T06:38:34.514Z,6.52
2018-11-06T06:39:40.401Z,6.51
2018-11-06T06:40:46.300Z,6.43
2018-11-06T06:41:52.396Z,6.40
2018-11-06T06:42:58.300Z,6.34
2018-11-06T06:44:04.186Z,6.40
2018-11-06T06:45:09.965Z,6.31
2018-11-06T06:46:16.324Z,6.28
2018-11-06T06:47:22.402Z,6.35
2018-11-06T06:48:28.296Z,6.36
2018-11-06T06:49:36.774Z,6.27
2018-11-06T06:50:44.238Z,6.28
2018-11-06T06:51:50.111Z,6.38
2018-11-06T06:52:55.996Z,6.43
2018-11-06T06:54:01.982Z,6.30
2018-11-06T06:55:07.718Z,6.39
2018-11-06T06:56:13.738Z,6.46
2018-11-06T06:57:19.629Z,6.38
2018-11-06T06:58:26.226Z,6.43
2018-11-06T06:59:32.461Z,6.36
2018-11-06T07:00:38.346Z,6.32
2018-11-06T07:01:44.288Z,6.45
2018-11-06T07:02:50.580Z,6.46
2018-11-06T07:03:56.993Z,6.54
2018-11-06T07:05:03.154Z,6.54
2018-11-06T07:06:09.014Z,6.54
2018-11-06T07:07:14.958Z,6.65
2018-11-06T07:08:21.154Z,6.84
2018-11-06T07:09:27.080Z,6.90
2018-11-06T07:10:32.963Z,7.03
2018-11-06T07:11:38.886Z,7.01
2018-11-06T07:12:44.726Z,6.99
2018-11-06T07:13:50.791Z,7.01
2018-11-06T07:14:56.682Z,6.98
2018-11-06T07:16:02.827Z,7.14
2018-11-06T07:17:08.718Z,7.19
2018-11-06T07:18:14.592Z,7.28
2018-11-06T07:19:20.478Z,7.35
2018-11-06T07:20:26.328Z,7.36
2018-11-06T07:21:32.251Z,7.40
2018-11-06T07:22:38.173Z,7.42
2018-11-06T07:23:44.303Z,7.57
2018-11-06T07:24:50.184Z,7.61
2018-11-06T07:25:56.098Z,7.71
2018-11-06T07:27:02.015Z,7.72
2018-11-06T07:28:07.937Z,7.72
2018-11-06T07:29:13.783Z,7.77
2018-11-06T07:30:19.378Z,7.74
2018-11-06T07:31:25.266Z,7.77
2018-11-06T07:32:31.117Z,7.84
2018-11-06T07:33:37.002Z,7.92
2018-11-06T07:34:42.914Z,7.94
2018-11-06T07:35:49.251Z,7.90
2018-11-06T07:36:55.114Z,7.92
2018-11-06T07:38:01.013Z,7.96
2018-11-06T07:39:06.258Z,8.06
2018-11-06T07:40:11.471Z,8.00
2018-11-06T07:41:16.780Z,8.06
2018-11-06T07:42:22.894Z,8.20
2018-11-06T07:43:29.223Z,8.22
2018-11-06T07:44:35.117Z,8.27
2018-11-06T07:45:41.004Z,8.27
2018-11-06T07:46:46.910Z,8.22
2018-11-06T07:47:52.790Z,8.30
2018-11-06T07:48:58.851Z,8.33
2018-11-06T07:50:04.177Z,8.45
2018-11-06T07:51:10.197Z,8.43
2018-11-06T07:52:16.292Z,8.45
2018-11-06T07:53:22.922Z,8.48
2018-11-06T07:54:28.804Z,8.53
2018-11-06T07:55:34.810Z,8.63
2018-11-06T07:56:40.837Z,8.69
2018-11-06T07:57:46.120Z,8.80
2018-11-06T07:58:52.019Z,8.80
2018-11-06T07:59:58.127Z,8.79
2018-11-06T08:01:04.068Z,8.90
2018-11-06T08:02:09.976Z,9.02
2018-11-06T08:03:15.855Z,8.99
2018-11-06T08:04:21.736Z,9.04
2018-11-06T08:05:27.625Z,9.10
2018-11-06T08:06:33.506Z,9.14
2018-11-06T08:07:39.375Z,9.26
2018-11-06T08:08:45.253Z,9.27
2018-11-06T08:09:51.205Z,9.33
2018-11-06T08:10:57.329Z,9.39
2018-11-06T08:12:03.222Z,9.55
2018-11-06T08:13:09.117Z,9.78
2018-11-06T08:14:15.274Z,10.01
2018-11-06T08:15:21.234Z,10.07
2018-11-06T08:16:27.150Z,10.07
2018-11-06T08:17:33.117Z,10.12
2018-11-06T08:18:38.999Z,10.10
2018-11-06T08:19:44.918Z,9.99
2018-11-06T08:20:50.806Z,9.99
2018-11-06T08:21:56.716Z,10.02
2018-11-06T08:23:02.640Z,10.02
2018-11-06T08:24:08.537Z,10.09
2018-11-06T08:25:14.461Z,10.23
2018-11-06T08:26:20.348Z,10.29
2018-11-06T08:27:26.231Z,10.34
2018-11-06T08:28:32.135Z,10.34
2018-11-06T08:29:38.065Z,10.39
2018-11-06T08:30:44.111Z,10.48
2018-11-06T08:31:50.384Z,10.46
2018-11-06T08:32:56.292Z,10.57
2018-11-06T08:34:02.175Z,10.66
2018-11-06T08:35:09.532Z,10.71
2018-11-06T08:36:15.108Z,10.79
2018-11-06T08:37:21.056Z,10.80
2018-11-06T08:38:26.934Z,10.81
2018-11-06T08:39:32.816Z,10.86
2018-11-06T08:40:38.711Z,10.98
2018-11-06T08:41:44.628Z,11.09
2018-11-06T08:42:50.530Z,11.12
2018-11-06T08:43:56.089Z,11.03
2018-11-06T08:45:02.088Z,11.11
2018-11-06T08:46:08.020Z,11.15
2018-11-06T08:47:13.901Z,11.24
2018-11-06T08:48:19.911Z,11.28
2018-11-06T08:49:25.909Z,11.26
2018-11-06T08:50:31.802Z,11.28
2018-11-06T08:51:37.720Z,11.45
2018-11-06T08:52:43.642Z,11.58
2018-11-06T08:53:49.812Z,11.68
2018-11-06T08:54:55.698Z,11.69
2018-11-06T08:56:01.956Z,11.61
2018-11-06T08:57:07.899Z,11.72
2018-11-06T08:58:13.771Z,11.65
2018-11-06T08:59:19.668Z,11.64
2018-11-06T09:00:25.568Z,11.85
2018-11-06T09:01:31.447Z,11.87
2018-11-06T09:02:37.653Z,11.79
2018-11-06T09:03:43.737Z,11.78
2018-11-06T09:04:49.641Z,11.76
2018-11-06T09:05:55.548Z,11.73
2018-11-06T09:07:01.435Z,11.76
2018-11-06T09:08:07.345Z,11.97
2018-11-06T09:09:13.221Z,12.11
2018-11-06T09:10:19.087Z,12.02
2018-11-06T09:11:25.289Z,11.97
2018-11-06T09:12:31.474Z,12.00
2018-11-06T09:13:37.343Z,12.08
2018-11-06T09:14:43.196Z,12.08
2018-11-06T09:15:49.163Z,12.09
2018-11-06T09:16:57.127Z,12.16
2018-11-06T09:18:03.240Z,12.24
2018-11-06T09:19:09.191Z,12.29
2018-11-06T09:20:14.762Z,12.33
2018-11-06T09:21:20.662Z,12.32
2018-11-06T09:22:26.542Z,12.33
2018-11-06T09:23:31.727Z,12.38
2018-11-06T09:24:37.632Z,12.46
2018-11-06T09:25:43.521Z,12.55
2018-11-06T09:26:49.396Z,12.59
2018-11-06T09:27:55.312Z,12.59
2018-11-06T09:29:01.213Z,12.66
2018-11-06T09:30:06.402Z,12.68
2018-11-06T09:31:12.323Z,12.70
2018-11-06T09:32:18.195Z,12.74
2018-11-06T09:33:24.066Z,12.76
2018-11-06T09:34:29.916Z,13.02
2018-11-06T09:35:35.877Z,13.05
2018-11-06T09:36:41.747Z,13.17
2018-11-06T09:37:53.722Z,13.23
2018-11-06T09:39:00.802Z,13.10
2018-11-06T09:40:06.010Z,13.04
2018-11-06T09:41:11.964Z,13.02
2018-11-06T09:42:18.001Z,12.98
2018-11-06T09:43:23.887Z,13.04
2018-11-06T09:44:29.778Z,13.07
2018-11-06T09:45:35.706Z,13.14
2018-11-06T09:46:41.755Z,13.14
2018-11-06T09:47:47.662Z,13.15
2018-11-06T09:48:53.560Z,13.14
2018-11-06T09:49:59.387Z,13.21
2018-11-06T09:51:04.965Z,13.22
2018-11-06T09:52:10.877Z,13.29
2018-11-06T09:53:16.946Z,13.33
2018-11-06T09:54:22.830Z,13.35
2018-11-06T09:55:28.722Z,13.34
2018-11-06T09:56:34.626Z,13.37
2018-11-06T09:57:40.485Z,13.53
2018-11-06T09:58:52.223Z,13.54
2018-11-06T09:59:58.120Z,13.61
2018-11-06T10:01:04.018Z,13.58
2018-11-06T10:02:09.908Z,13.56
2018-11-06T10:03:15.831Z,13.56
2018-11-06T10:04:21.713Z,13.65
2018-11-06T10:05:27.636Z,13.73
2018-11-06T10:06:33.704Z,13.74
2018-11-06T10:07:39.629Z,13.69
2018-11-06T10:08:45.644Z,13.71
2018-11-06T10:09:51.553Z,13.70
2018-11-06T10:10:57.461Z,13.69
2018-11-06T10:12:03.365Z,13.75
2018-11-06T10:13:09.227Z,13.73
2018-11-06T10:14:15.106Z,13.79
2018-11-06T10:15:21.028Z,13.91
2018-11-06T10:16:27.035Z,13.97
2018-11-06T10:17:33.069Z,13.96
2018-11-06T10:18:39.001Z,13.95
2018-11-06T10:19:44.885Z,13.99
2018-11-06T10:20:51.357Z,14.04
2018-11-06T10:21:57.252Z,14.07
2018-11-06T10:23:03.542Z,14.25
2018-11-06T10:24:09.384Z,14.28
2018-11-06T10:25:15.231Z,14.35
2018-11-06T10:26:22.108Z,14.40
2018-11-06T10:27:28.010Z,14.61
2018-11-06T10:28:33.872Z,14.63
2018-11-06T10:29:39.789Z,14.65
2018-11-06T10:30:45.703Z,14.64
2018-11-06T10:31:51.429Z,14.77
2018-11-06T10:32:57.305Z,14.77
2018-11-06T10:34:03.218Z,15.02
2018-11-06T10:35:08.729Z,15.23
2018-11-06T10:36:14.594Z,15.35
2018-11-06T10:37:20.491Z,15.43
2018-11-06T10:38:26.391Z,15.55
2018-11-06T10:39:32.306Z,15.60
2018-11-06T10:40:38.145Z,15.47
2018-11-06T10:41:44.301Z,15.56
2018-11-06T10:42:53.405Z,15.49
2018-11-06T10:43:59.262Z,15.63
2018-11-06T10:45:04.448Z,15.71
2018-11-06T10:46:10.336Z,15.68
2018-11-06T10:47:16.198Z,15.64
2018-11-06T10:48:22.054Z,15.57
2018-11-06T10:49:27.911Z,15.56
2018-11-06T10:50:33.802Z,15.32
2018-11-06T10:51:39.751Z,15.41
2018-11-06T10:52:46.018Z,15.52
2018-11-06T10:53:51.922Z,15.59
2018-11-06T10:54:57.803Z,15.55
2018-11-06T10:56:03.317Z,15.61
2018-11-06T10:57:09.222Z,15.54
2018-11-06T10:58:15.205Z,15.33
2018-11-06T10:59:21.559Z,15.43
2018-11-06T11:00:27.233Z,15.58
2018-11-06T11:03:08.460Z,15.27
2018-11-06T11:04:17.916Z,15.14
2018-11-06T11:05:26.200Z,15.12
2018-11-06T11:06:34.922Z,15.30
2018-11-06T11:07:46.063Z,15.54
2018-11-06T11:08:56.671Z,15.42
2018-11-06T11:10:02.821Z,15.34
2018-11-06T11:11:10.017Z,15.38
2018-11-06T11:12:21.285Z,15.63
2018-11-06T11:13:27.502Z,15.75
2018-11-06T11:14:36.921Z,15.72
2018-11-06T11:15:45.592Z,15.81
2018-11-06T11:16:56.540Z,15.84
2018-11-06T11:18:03.356Z,15.48
2018-11-06T11:19:15.088Z,15.45
2018-11-06T11:20:25.418Z,15.42
2018-11-06T11:21:31.791Z,15.39
2018-11-06T11:22:43.678Z,15.26
2018-11-06T11:23:50.543Z,15.40
2018-11-06T11:24:59.770Z,15.33
2018-11-06T11:26:07.302Z,15.24
2018-11-06T11:27:14.464Z,15.33
2018-11-06T11:28:22.057Z,15.37
2018-11-06T11:29:31.416Z,15.41
2018-11-06T11:30:40.939Z,15.50
2018-11-06T11:31:50.267Z,15.50
2018-11-06T11:33:02.847Z,15.49
2018-11-06T11:34:13.152Z,15.51
2018-11-06T11:35:24.367Z,15.53
2018-11-06T11:36:40.101Z,15.55
2018-11-06T11:37:48.835Z,15.65
2018-11-06T11:38:55.103Z,15.65
2018-11-06T11:40:02.004Z,15.78
2018-11-06T11:41:12.187Z,15.90
2018-11-06T11:42:20.645Z,16.00
2018-11-06T11:43:26.902Z,16.16
2018-11-06T11:44:34.927Z,16.15
2018-11-06T11:45:41.067Z,16.17
2018-11-06T11:46:51.756Z,16.01
2018-11-06T11:48:05.613Z,15.94
2018-11-06T11:49:13.683Z,16.02
2018-11-06T11:50:24.060Z,16.03
2018-11-06T11:51:30.305Z,16.06
2018-11-06T11:52:38.278Z,16.08
2018-11-06T11:53:46.919Z,16.03
2018-11-06T11:54:57.421Z,16.16
2018-11-06T11:56:05.050Z,16.22
2018-11-06T11:57:12.868Z,16.20
2018-11-06T11:58:21.206Z,16.21
2018-11-06T11:59:31.912Z,16.20
2018-11-06T12:00:39.832Z,16.26
2018-11-06T12:01:46.225Z,16.37
2018-11-06T12:02:53.987Z,16.28
2018-11-06T12:04:04.768Z,16.18
2018-11-06T12:05:20.479Z,16.16
2018-11-06T12:06:30.986Z,16.25
2018-11-06T12:07:39.473Z,16.37
2018-11-06T12:08:46.277Z,16.32
2018-11-06T12:10:02.863Z,16.27
2018-11-06T12:11:12.533Z,16.34
2018-11-06T12:12:22.915Z,16.46
2018-11-06T12:13:35.212Z,16.57
2018-11-06T12:14:46.262Z,16.73
2018-11-06T12:15:55.901Z,16.80
2018-11-06T12:17:03.640Z,16.97
2018-11-06T12:18:13.095Z,16.94
2018-11-06T12:19:22.924Z,16.97
2018-11-06T12:20:31.241Z,16.88
2018-11-06T12:21:43.553Z,16.80
2018-11-06T12:22:50.908Z,16.60
2018-11-06T12:23:59.902Z,16.58
2018-11-06T12:25:11.035Z,16.62
2018-11-06T12:26:25.956Z,16.81
2018-11-06T12:27:35.656Z,17.10
2018-11-06T12:28:43.946Z,17.04
2018-11-06T12:29:52.906Z,16.78
2018-11-06T12:31:03.920Z,16.90
2018-11-06T12:32:13.711Z,17.28
2018-11-06T12:33:23.243Z,17.15
2018-11-06T12:34:32.958Z,17.04
2018-11-06T12:35:41.657Z,16.93
2018-11-06T12:36:54.115Z,17.15
2018-11-06T12:38:05.357Z,16.93
2018-11-06T12:39:16.199Z,16.85
2018-11-06T12:40:25.112Z,16.97
2018-11-06T12:41:35.517Z,17.31
2018-11-06T12:42:41.586Z,17.31
2018-11-06T12:43:50.115Z,17.63
2018-11-06T12:44:59.236Z,17.99
2018-11-06T12:46:08.079Z,18.25
2018-11-06T12:47:16.906Z,18.34
2018-11-06T12:48:30.730Z,18.28
2018-11-06T12:49:37.882Z,18.46
2018-11-06T12:50:45.771Z,18.17
2018-11-06T12:51:57.163Z,17.92
2018-11-06T12:53:05.086Z,17.61
2018-11-06T12:54:17.613Z,17.62
2018-11-06T12:55:26.338Z,17.40
2018-11-06T12:56:34.733Z,17.71
2018-11-06T12:57:44.896Z,17.63
2018-11-06T12:58:53.543Z,17.74
2018-11-06T13:00:07.389Z,18.04
2018-11-06T13:01:16.857Z,18.52
2018-11-06T13:02:26.243Z,18.81
2018-11-06T13:03:35.377Z,18.81
2018-11-06T13:04:44.416Z,18.02
2018-11-06T13:05:51.699Z,18.46
2018-11-06T13:06:58.482Z,18.46
2018-11-06T13:08:11.760Z,18.29
2018-11-06T13:09:24.306Z,18.40
2018-11-06T13:10:32.161Z,18.04
2018-11-06T13:11:39.909Z,17.83
2018-11-06T13:12:46.381Z,18.21
2018-11-06T13:13:58.610Z,18.00
2018-11-06T13:15:09.247Z,18.01
2018-11-06T13:16:20.291Z,18.36
2018-11-06T13:17:26.317Z,18.77
2018-11-06T13:18:36.816Z,19.01
2018-11-06T13:19:44.178Z,18.65
2018-11-06T13:20:55.490Z,19.05
2018-11-06T13:22:02.051Z,19.01
2018-11-06T13:23:08.781Z,19.05
2018-11-06T13:24:21.616Z,19.57
2018-11-06T13:25:27.766Z,19.69
2018-11-06T13:26:36.893Z,19.74
2018-11-06T13:27:46.209Z,19.28
2018-11-06T13:28:56.602Z,19.31
2018-11-06T13:30:04.787Z,18.94
2018-11-06T13:31:10.998Z,18.33
2018-11-06T13:32:20.713Z,18.64
2018-11-06T13:33:28.418Z,18.57
2018-11-06T13:34:37.147Z,18.46
2018-11-06T13:35:46.261Z,18.30
2018-11-06T13:37:00.666Z,18.54
2018-11-06T13:38:08.840Z,18.92
2018-11-06T13:39:16.517Z,18.51
2018-11-06T13:40:24.469Z,18.59
2018-11-06T13:41:33.309Z,18.70
2018-11-06T13:42:39.707Z,19.18
2018-11-06T13:43:46.939Z,19.21
2018-11-06T13:44:59.274Z,18.58
2018-11-06T13:46:08.637Z,18.79
2018-11-06T13:47:19.627Z,18.92
2018-11-06T13:48:29.710Z,19.12
2018-11-06T13:49:37.428Z,19.36
2018-11-06T13:50:49.365Z,19.49
2018-11-06T13:51:59.072Z,19.72
2018-11-06T13:53:07.969Z,18.86
2018-11-06T13:54:16.128Z,18.70
2018-11-06T13:55:24.258Z,18.49
2018-11-06T13:56:31.903Z,18.19
2018-11-06T13:57:40.458Z,18.15
2018-11-06T13:58:47.758Z,18.48
2018-11-06T13:59:58.928Z,18.41
2018-11-06T14:01:05.716Z,18.60
2018-11-06T14:02:13.005Z,18.46
2018-11-06T14:03:22.200Z,18.59
2018-11-06T14:04:32.024Z,18.45
2018-11-06T14:05:42.758Z,18.58
2018-11-06T14:06:54.666Z,18.34
2018-11-06T14:08:06.061Z,18.00
2018-11-06T14:09:15.286Z,17.76
2018-11-06T14:10:23.717Z,17.66
2018-11-06T14:11:33.861Z,17.76
2018-11-06T14:12:46.664Z,17.76
2018-11-06T14:13:56.242Z,17.61
2018-11-06T14:15:03.145Z,17.65
2018-11-06T14:16:13.748Z,17.65
2018-11-06T14:17:23.434Z,17.65
2018-11-06T14:18:32.235Z,17.64
2018-11-06T14:19:40.348Z,17.58
2018-11-06T14:20:46.487Z,17.58
2018-11-06T14:21:53.996Z,17.60
2018-11-06T14:23:00.070Z,17.48
2018-11-06T14:24:08.444Z,17.31
2018-11-06T14:25:17.144Z,17.34
2018-11-06T14:26:24.511Z,17.21
2018-11-06T14:27:34.521Z,17.08
2018-11-06T14:28:42.947Z,17.09
2018-11-06T14:29:56.063Z,17.15
2018-11-06T14:31:06.323Z,17.07
2018-11-06T14:32:16.283Z,17.18
2018-11-06T14:33:23.827Z,17.06
2018-11-06T14:34:32.290Z,16.91
2018-11-06T14:35:45.076Z,17.07
2018-11-06T14:36:55.115Z,17.08
2018-11-06T14:38:07.431Z,17.02
2018-11-06T14:39:16.261Z,16.77